Time;durP1;ratioP1;P1;durP2;ratioP2;P2;SDS_P1;SDS_P2;PMS_P1;PMS_P2;Temp;Humidity;BMP_temperature;BMP_pressure;BME280_temperature;BME280_humidity;BME280_pressure;Samples;Min_cycle;Max_cycle;Signal;HPM_P1;HPM_P2
2023/05/04 00:02:21;;;;;;;5.80;4.20;;;;;;;9.57;75.07;102280.28;5089994;28;20388;-36
2023/05/04 00:04:46;;;;;;;6.53;4.15;;;;;;;9.48;75.27;102276.84;5090072;28;20403;-36
2023/05/04 00:07:12;;;;;;;9.97;4.47;;;;;;;9.44;75.00;102272.84;5090500;28;20452;-36
2023/05/04 00:09:37;;;;;;;5.40;4.10;;;;;;;9.43;75.88;102265.78;5090176;28;20110;-36
2023/05/04 00:12:03;;;;;;;7.90;4.10;;;;;;;9.44;75.70;102264.75;5082372;28;20039;-36
2023/05/04 00:14:28;;;;;;;5.15;4.07;;;;;;;9.42;76.41;102260.56;5076237;28;20032;-36
2023/05/04 00:16:53;;;;;;;6.00;3.90;;;;;;;9.39;75.25;102267.19;5076100;28;20460;-36
2023/05/04 00:19:19;;;;;;;6.87;4.10;;;;;;;9.31;75.98;102259.19;5075907;28;20028;-36
2023/05/04 00:21:44;;;;;;;8.47;3.97;;;;;;;9.36;75.72;102261.31;5076426;28;20307;-36
2023/05/04 00:24:10;;;;;;;6.22;3.78;;;;;;;9.36;75.85;102256.75;5076097;28;20040;-36
2023/05/04 00:26:35;;;;;;;6.73;4.27;;;;;;;9.34;76.50;102252.59;5076871;28;20110;-36
2023/05/04 00:29:00;;;;;;;8.98;4.18;;;;;;;9.24;76.26;102242.06;5076271;28;20024;-36
2023/05/04 00:31:28;;;;;;;8.37;5.23;;;;;;;9.22;76.74;102247.66;5075979;28;20492;-36
2023/05/04 00:33:53;;;;;;;10.38;5.32;;;;;;;9.15;76.41;102235.09;5076133;28;20041;-36
2023/05/04 00:36:19;;;;;;;5.37;4.27;;;;;;;9.20;77.18;102240.78;5076513;28;20414;-35
2023/05/04 00:38:49;;;;;;;7.15;4.32;;;;;;;9.10;77.07;102229.44;5075795;28;20033;-36
2023/05/04 00:41:16;;;;;;;5.80;4.40;;;;;;;8.99;76.99;102218.09;5075779;28;20024;-36
2023/05/04 00:43:41;;;;;;;9.80;4.47;;;;;;;9.19;77.59;102241.81;5075786;28;20033;-36
2023/05/04 00:46:07;;;;;;;5.23;3.83;;;;;;;9.17;77.74;102231.16;5075826;28;20078;-35
2023/05/04 00:48:33;;;;;;;6.65;4.68;;;;;;;9.16;76.58;102228.66;5075379;28;20278;-36
2023/05/04 00:50:58;;;;;;;7.05;4.28;;;;;;;9.02;77.71;102216.84;5076251;28;20033;-36
2023/05/04 00:53:24;;;;;;;5.97;4.15;;;;;;;9.11;77.18;102229.22;5075877;28;20131;-36
2023/05/04 00:55:50;;;;;;;6.35;4.82;;;;;;;9.00;77.05;102213.53;5076393;28;20032;-36
2023/05/04 00:58:16;;;;;;;6.83;4.00;;;;;;;9.05;77.29;102223.75;5075493;28;20052;-36
2023/05/04 01:00:41;;;;;;;;;;;;;;;9.14;77.11;102219.94;5075793;28;20092;-36
2023/05/04 01:03:08;;;;;;;6.85;4.18;;;;;;;9.07;77.15;102224.41;5075637;28;20039;-36
2023/05/04 01:05:41;;;;;;;5.88;4.13;;;;;;;9.11;77.87;102217.59;5075373;28;20107;-36
2023/05/04 01:08:13;;;;;;;5.68;3.90;;;;;;;8.97;78.65;102214.72;5075633;28;20445;-36
2023/05/04 01:10:48;;;;;;;6.00;4.20;;;;;;;8.97;78.36;102227.38;5075258;28;20028;-36
2023/05/04 01:13:15;;;;;;;7.20;4.43;;;;;;;8.97;78.21;102219.28;5075728;28;20036;-36
2023/05/04 01:15:41;;;;;;;7.03;4.25;;;;;;;9.06;78.02;102217.34;5074918;28;20043;-36
2023/05/04 01:18:07;;;;;;;6.00;4.20;;;;;;;8.87;78.95;102197.97;5075036;28;20032;-36
2023/05/04 01:20:33;;;;;;;;;;;;;;;9.02;78.10;102206.91;5075993;28;20056;-36
2023/05/04 01:22:59;;;;;;;7.13;4.63;;;;;;;8.90;79.08;102205.72;5074472;28;19966;-36
2023/05/04 01:25:32;;;;;;;5.90;4.05;;;;;;;8.86;79.98;102201.72;5075025;28;20419;-36
2023/05/04 01:28:11;;;;;;;6.22;3.95;;;;;;;8.76;79.70;102193.91;5074618;28;20031;-36
2023/05/04 01:30:42;;;;;;;9.32;4.15;;;;;;;8.75;79.27;102204.88;5075140;28;20469;-36
2023/05/04 01:33:08;;;;;;;7.15;4.78;;;;;;;8.72;80.72;102199.84;5074769;28;20119;-36
2023/05/04 01:35:33;;;;;;;;;;;;;;;8.80;79.49;102199.78;5075687;28;20068;-36
2023/05/04 01:37:58;;;;;;;7.03;4.68;;;;;;;8.71;80.14;102201.72;5074368;28;19952;-36
2023/05/04 01:40:24;;;;;;;5.97;4.20;;;;;;;8.65;81.10;102205.16;5073663;28;20025;-36
2023/05/04 01:42:49;;;;;;;11.90;5.57;;;;;;;8.61;81.10;102209.25;5074852;28;20063;-36
2023/05/04 01:45:15;;;;;;;7.13;4.13;;;;;;;8.58;81.05;102193.41;5075170;28;20240;-36
2023/05/04 01:47:40;;;;;;;7.97;5.10;;;;;;;8.58;81.19;102200.69;5074452;28;20050;-36
2023/05/04 01:50:06;;;;;;;8.37;4.60;;;;;;;8.52;81.85;102203.09;5074757;28;20259;-36
2023/05/04 01:52:31;;;;;;;5.93;4.32;;;;;;;8.56;81.79;102200.88;5074400;28;20032;-36
2023/05/04 01:54:56;;;;;;;5.83;4.10;;;;;;;8.58;82.71;102198.81;5074716;28;20074;-36
2023/05/04 01:57:22;;;;;;;7.07;4.87;;;;;;;8.54;82.04;102210.16;5074281;28;20279;-36
2023/05/04 01:59:47;;;;;;;9.68;5.60;;;;;;;8.41;82.88;102206.25;5074401;28;20047;-36
2023/05/04 02:02:13;;;;;;;6.80;4.50;;;;;;;8.37;83.28;102212.19;5074531;28;20032;-36
2023/05/04 02:04:40;;;;;;;6.88;4.50;;;;;;;8.41;82.80;102211.63;5074458;28;20107;-36
2023/05/04 02:07:05;;;;;;;7.30;4.72;;;;;;;8.35;83.10;102204.25;5074333;28;20029;-36
2023/05/04 02:09:31;;;;;;;6.85;4.50;;;;;;;8.41;83.16;102202.72;5074138;28;20033;-36
2023/05/04 02:11:56;;;;;;;8.37;5.07;;;;;;;8.37;83.16;102201.41;5074093;28;20029;-36
2023/05/04 02:14:22;;;;;;;7.40;4.67;;;;;;;8.28;83.08;102189.81;5073779;28;20058;-36
2023/05/04 02:16:47;;;;;;;6.07;4.63;;;;;;;8.21;83.80;102200.50;5074092;28;20251;-36
2023/05/04 02:19:12;;;;;;;5.67;4.53;;;;;;;8.17;84.67;102201.06;5074463;28;20412;-36
2023/05/04 02:21:40;;;;;;;11.77;4.83;;;;;;;8.12;85.11;102198.91;5073868;28;20036;-36
2023/05/04 02:24:06;;;;;;;7.28;4.93;;;;;;;8.15;85.20;102193.16;5073817;28;20025;-36
2023/05/04 02:26:31;;;;;;;6.97;5.22;;;;;;;8.11;84.50;102197.22;5073841;28;20036;-36
2023/05/04 02:28:57;;;;;;;7.55;4.97;;;;;;;7.99;86.04;102188.72;5073776;28;20032;-36
2023/05/04 02:31:23;;;;;;;6.93;5.18;;;;;;;8.11;85.52;102191.00;5074073;28;20066;-36
2023/05/04 02:33:49;;;;;;;10.27;5.20;;;;;;;8.12;84.45;102187.28;5073513;28;20477;-36
2023/05/04 02:36:15;;;;;;;7.75;4.80;;;;;;;8.06;85.83;102185.31;5073749;28;20306;-36
2023/05/04 02:38:40;;;;;;;6.43;4.60;;;;;;;8.06;86.26;102183.47;5073460;28;20056;-36
2023/05/04 02:41:06;;;;;;;9.23;4.43;;;;;;;8.03;85.85;102178.44;5073874;28;20032;-36
2023/05/04 02:43:31;;;;;;;7.50;4.90;;;;;;;8.07;85.71;102182.44;5073633;28;20028;-36
2023/05/04 02:45:56;;;;;;;6.57;4.60;;;;;;;8.07;85.76;102184.31;5073668;28;20020;-36
2023/05/04 02:48:23;;;;;;;6.20;4.33;;;;;;;8.04;85.31;102179.25;5073570;28;20024;-36
2023/05/04 02:50:48;;;;;;;9.73;5.10;;;;;;;8.00;86.38;102171.56;5073300;28;20067;-36
2023/05/04 02:53:14;;;;;;;5.37;4.20;;;;;;;7.83;86.93;102163.78;5074362;28;20107;-36
2023/05/04 02:55:39;;;;;;;7.23;4.43;;;;;;;7.93;86.96;102181.38;5073521;28;20518;-36
2023/05/04 02:58:05;;;;;;;8.30;5.00;;;;;;;7.91;86.57;102186.13;5073720;28;20107;-36
2023/05/04 03:00:30;;;;;;;5.53;4.78;;;;;;;7.93;87.00;102173.28;5073760;28;20056;-36
2023/05/04 03:02:56;;;;;;;7.00;4.50;;;;;;;7.84;87.51;102163.59;5072750;28;20037;-36
2023/05/04 03:05:21;;;;;;;7.57;4.70;;;;;;;7.74;87.90;102176.47;5073962;28;20477;-36
2023/05/04 03:07:46;;;;;;;7.03;4.60;;;;;;;7.69;88.14;102178.88;5073056;28;20020;-37
2023/05/04 03:10:12;;;;;;;6.73;5.27;;;;;;;7.70;88.67;102167.06;5073381;28;20056;-36
2023/05/04 03:12:37;;;;;;;10.00;4.73;;;;;;;7.69;87.51;102179.69;5073506;28;20033;-36
2023/05/04 03:15:03;;;;;;;6.00;4.67;;;;;;;7.74;88.15;102168.41;5073440;28;20032;-36
2023/05/04 03:17:28;;;;;;;8.20;5.30;;;;;;;7.69;87.84;102176.19;5073007;28;20381;-37
2023/05/04 03:19:53;;;;;;;6.57;5.37;;;;;;;7.69;88.18;102176.19;5073576;28;20025;-37
2023/05/04 03:22:19;;;;;;;10.20;5.40;;;;;;;7.72;88.71;102173.97;5073246;28;20061;-37
2023/05/04 03:24:44;;;;;;;7.60;5.30;;;;;;;7.64;87.61;102168.63;5073253;28;20020;-37
2023/05/04 03:27:09;;;;;;;7.30;4.73;;;;;;;7.69;89.48;102174.31;5073578;28;20036;-37
2023/05/04 03:29:35;;;;;;;5.80;4.27;;;;;;;7.69;88.88;102165.41;5073150;28;20116;-37
2023/05/04 03:32:00;;;;;;;6.65;4.95;;;;;;;7.62;89.50;102165.31;5073691;28;20031;-37
2023/05/04 03:34:26;;;;;;;10.37;5.17;;;;;;;7.55;89.14;102164.31;5073143;28;20025;-37
2023/05/04 03:36:51;;;;;;;7.23;4.80;;;;;;;7.59;89.14;102156.72;5072918;28;20028;-37
2023/05/04 03:39:16;;;;;;;7.10;4.77;;;;;;;7.48;89.67;102153.44;5073327;28;20020;-37
2023/05/04 03:41:42;;;;;;;9.95;6.13;;;;;;;7.48;90.14;102144.53;5073850;28;20282;-37
2023/05/04 03:44:07;;;;;;;9.23;5.18;;;;;;;7.43;90.65;102145.06;5073013;28;20385;-37
2023/05/04 03:46:33;;;;;;;8.30;4.80;;;;;;;7.42;90.61;102138.03;5074023;28;20056;-37
2023/05/04 03:48:58;;;;;;;6.47;5.03;;;;;;;7.37;91.02;102139.53;5076833;28;20035;-37
2023/05/04 03:51:23;;;;;;;7.03;4.67;;;;;;;7.34;90.44;102145.31;5077348;28;20029;-37
2023/05/04 03:53:49;;;;;;;8.10;5.07;;;;;;;7.43;91.39;102138.84;5077310;28;20028;-37
2023/05/04 03:56:14;;;;;;;7.07;4.70;;;;;;;7.37;91.13;102120.69;5076685;28;20035;-37
2023/05/04 03:58:40;;;;;;;6.15;4.40;;;;;;;7.48;90.27;102142.69;5076315;28;20034;-37
2023/05/04 04:01:05;;;;;;;5.53;4.40;;;;;;;7.44;91.00;102135.97;5076675;28;20135;-35
2023/05/04 04:03:31;;;;;;;8.35;5.03;;;;;;;7.50;90.58;102137.09;5076776;28;20040;-35
2023/05/04 04:05:57;;;;;;;7.00;4.35;;;;;;;7.44;90.84;102137.81;5076991;28;20028;-35
2023/05/04 04:08:23;;;;;;;9.73;4.68;;;;;;;7.48;90.87;102142.69;5076476;28;20025;-35
2023/05/04 04:10:48;;;;;;;6.35;4.55;;;;;;;7.38;91.96;102131.31;5076463;28;20068;-35
2023/05/04 04:13:13;;;;;;;7.60;4.33;;;;;;;7.41;90.87;102144.38;5076344;28;20484;-36
2023/05/04 04:15:39;;;;;;;12.23;5.50;;;;;;;7.44;90.76;102145.91;5076937;28;20024;-36
2023/05/04 04:18:04;;;;;;;11.60;4.50;;;;;;;7.53;90.38;102136.75;5076042;28;20028;-36
2023/05/04 04:20:30;;;;;;;7.30;4.90;;;;;;;7.43;90.94;102128.09;5076671;28;20417;-36
2023/05/04 04:22:55;;;;;;;8.60;4.90;;;;;;;7.41;90.76;102141.69;5075916;28;20028;-35
2023/05/04 04:25:21;;;;;;;8.90;5.13;;;;;;;7.48;90.57;102134.59;5076475;28;20259;-35
2023/05/04 04:27:46;;;;;;;7.03;5.00;;;;;;;7.35;90.67;102118.19;5074918;28;20108;-36
2023/05/04 04:30:12;;;;;;;7.10;4.93;;;;;;;7.39;91.30;102100.69;5076586;28;20068;-36
2023/05/04 04:32:38;;;;;;;8.07;4.78;;;;;;;7.39;90.79;102116.84;5076509;28;20032;-36
2023/05/04 04:35:04;;;;;;;7.60;4.47;;;;;;;7.51;90.74;102121.78;5075958;28;20028;-36
2023/05/04 04:37:29;;;;;;;12.45;4.93;;;;;;;7.48;92.05;102123.00;5076409;28;20262;-36
2023/05/04 04:39:54;;;;;;;7.63;4.23;;;;;;;7.56;91.35;102122.09;5075607;28;20453;-37
2023/05/04 04:42:20;;;;;;;4.80;4.20;;;;;;;7.53;90.86;102106.31;5075516;28;20055;-37
2023/05/04 04:44:45;;;;;;;12.47;5.10;;;;;;;7.54;91.26;102121.44;5075812;28;20060;-37
2023/05/04 04:47:11;;;;;;;4.83;4.00;;;;;;;7.47;90.96;102100.63;5075445;28;20301;-36
2023/05/04 04:49:36;;;;;;;8.27;4.45;;;;;;;7.62;91.77;102110.63;5075368;28;20060;-36
2023/05/04 04:52:02;;;;;;;6.10;4.40;;;;;;;7.66;90.61;102112.78;5076511;28;20514;-36
2023/05/04 04:54:28;;;;;;;6.90;4.45;;;;;;;7.68;89.94;102115.28;5075563;28;20041;-37
2023/05/04 04:56:53;;;;;;;6.53;4.70;;;;;;;7.75;89.87;102117.03;5075534;28;20044;-36
2023/05/04 04:59:19;;;;;;;11.93;5.00;;;;;;;7.78;90.14;102117.72;5075351;28;20094;-37
2023/05/04 05:01:45;;;;;;;7.75;4.60;;;;;;;7.75;90.02;102116.22;5076552;28;20048;-36
2023/05/04 05:04:10;;;;;;;8.70;4.35;;;;;;;7.78;89.65;102115.03;5075408;28;20436;-36
2023/05/04 05:06:35;;;;;;;8.93;4.67;;;;;;;7.79;90.29;102125.59;5075679;28;20158;-37
2023/05/04 05:09:01;;;;;;;7.37;4.30;;;;;;;7.72;90.24;102113.91;5074068;28;20393;-37
2023/05/04 05:11:27;;;;;;;7.00;4.43;;;;;;;7.80;91.58;102123.75;5075839;28;20109;-36
2023/05/04 05:13:52;;;;;;;8.07;4.93;;;;;;;7.82;91.18;102125.25;5074456;28;20050;-36
2023/05/04 05:16:17;;;;;;;9.77;5.50;;;;;;;7.95;90.97;102124.63;5075150;28;20457;-36
2023/05/04 05:18:43;;;;;;;6.80;4.33;;;;;;;7.93;90.27;102129.38;5075078;28;20357;-37
2023/05/04 05:21:09;;;;;;;6.73;4.37;;;;;;;8.04;90.90;102136.16;5074068;28;20027;-37
2023/05/04 05:23:34;;;;;;;6.47;4.40;;;;;;;8.00;90.43;102133.84;5075291;28;20028;-37
2023/05/04 05:26:00;;;;;;;7.60;4.57;;;;;;;8.03;89.86;102124.56;5075320;28;20035;-36
2023/05/04 05:28:26;;;;;;;7.57;4.82;;;;;;;8.14;90.31;102132.19;5074616;28;20070;-37
2023/05/04 05:30:51;;;;;;;7.77;4.80;;;;;;;8.03;88.88;102113.78;5075238;28;20033;-36
2023/05/04 05:33:17;;;;;;;7.55;4.65;;;;;;;8.11;90.00;102120.97;5075303;28;20279;-37
2023/05/04 05:35:42;;;;;;;6.45;4.53;;;;;;;8.16;90.02;102134.72;5074784;28;20028;-37
2023/05/04 05:38:09;;;;;;;6.47;4.60;;;;;;;8.18;90.72;102130.78;5074656;28;20020;-37
2023/05/04 05:40:35;;;;;;;;;;;;;;;8.21;89.44;102126.91;5074939;28;20029;-36
2023/05/04 05:43:01;;;;;;;6.13;4.68;;;;;;;8.22;90.22;102125.88;5074265;28;20377;-37
2023/05/04 05:45:27;;;;;;;8.77;4.85;;;;;;;8.26;90.56;102130.72;5074320;28;20029;-36
2023/05/04 05:47:52;;;;;;;7.50;5.03;;;;;;;8.36;89.46;102129.63;5074160;28;20032;-36
2023/05/04 05:50:19;;;;;;;7.40;4.70;;;;;;;8.40;89.34;102128.25;5074735;28;20342;-37
2023/05/04 05:52:44;;;;;;;7.60;4.43;;;;;;;8.58;90.21;102122.47;5075214;28;20024;-36
2023/05/04 05:55:10;;;;;;;6.88;4.65;;;;;;;8.70;89.76;102137.19;5074685;28;20526;-37
2023/05/04 05:57:35;;;;;;;7.43;4.68;;;;;;;8.79;88.93;102124.44;5074641;28;20457;-37
2023/05/04 06:00:00;;;;;;;6.87;4.87;;;;;;;8.86;87.34;102130.75;5074420;28;20028;-37
2023/05/04 06:02:26;;;;;;;5.90;4.55;;;;;;;8.80;87.99;102101.84;5074837;28;20440;-37
2023/05/04 06:04:51;;;;;;;5.53;4.73;;;;;;;8.90;86.92;102114.00;5073977;28;20035;-36
2023/05/04 06:07:18;;;;;;;7.53;4.57;;;;;;;8.96;86.49;102104.31;5074559;28;20108;-36
2023/05/04 06:09:43;;;;;;;7.03;4.80;;;;;;;8.86;86.24;102099.22;5073349;28;20112;-37
2023/05/04 06:12:12;;;;;;;5.10;4.53;;;;;;;9.03;86.10;102110.63;5074074;28;20131;-37
2023/05/04 06:14:38;;;;;;;6.70;4.43;;;;;;;9.00;86.83;102095.63;5074267;28;20031;-37
2023/05/04 06:17:04;;;;;;;7.03;4.95;;;;;;;9.17;85.67;102107.03;5074518;28;20025;-37
2023/05/04 06:19:29;;;;;;;7.75;4.60;;;;;;;9.23;85.65;102108.16;5073842;28;20082;-37
2023/05/04 06:21:54;;;;;;;7.15;4.93;;;;;;;9.28;85.20;102094.91;5074512;28;20067;-37
2023/05/04 06:24:21;;;;;;;7.23;4.30;;;;;;;9.39;85.76;102091.69;5073640;28;20029;-37
2023/05/04 06:26:46;;;;;;;7.07;4.60;;;;;;;9.38;84.41;102081.09;5074358;28;20052;-37
2023/05/04 06:29:12;;;;;;;8.77;4.75;;;;;;;9.47;83.87;102080.78;5073384;28;20055;-37
2023/05/04 06:31:37;;;;;;;9.57;4.70;;;;;;;9.56;84.15;102084.16;5074044;28;20107;-37
2023/05/04 06:34:03;;;;;;;8.23;4.67;;;;;;;9.53;83.88;102071.91;5073746;28;20052;-37
2023/05/04 06:36:28;;;;;;;6.20;4.75;;;;;;;9.72;83.43;102083.06;5074479;28;20107;-37
2023/05/04 06:38:56;;;;;;;9.77;4.60;;;;;;;9.74;83.19;102065.63;5073445;28;20431;-37
2023/05/04 06:41:22;;;;;;;5.80;4.40;;;;;;;9.89;83.13;102072.78;5073874;28;20085;-37
2023/05/04 06:43:47;;;;;;;11.60;5.68;;;;;;;10.02;83.92;102075.59;5073864;28;20120;-37
2023/05/04 06:46:13;;;;;;;9.60;4.80;;;;;;;10.09;82.09;102079.19;5073699;28;20081;-37
2023/05/04 06:48:38;;;;;;;7.27;4.30;;;;;;;10.12;82.83;102061.75;5073648;28;20388;-37
2023/05/04 06:51:03;;;;;;;9.07;4.70;;;;;;;10.18;81.21;102075.28;5073566;28;20277;-37
2023/05/04 06:53:29;;;;;;;8.07;4.50;;;;;;;10.23;80.42;102072.81;5073563;28;20035;-37
2023/05/04 06:55:54;;;;;;;6.53;4.47;;;;;;;10.27;81.00;102062.47;5073572;28;20139;-37
2023/05/04 06:58:20;;;;;;;9.60;4.80;;;;;;;10.32;81.24;102057.31;5073168;28;20431;-37
2023/05/04 07:00:46;;;;;;;10.80;4.85;;;;;;;10.34;79.60;102055.22;5074041;28;20048;-37
2023/05/04 07:03:12;;;;;;;7.20;4.43;;;;;;;10.56;81.03;102067.63;5073435;28;20032;-37
2023/05/04 07:05:37;;;;;;;5.72;4.18;;;;;;;10.64;79.76;102054.94;5074275;28;20460;-37
2023/05/04 07:08:03;;;;;;;5.87;3.90;;;;;;;10.82;80.34;102057.94;5073158;28;20035;-37
2023/05/04 07:10:28;;;;;;;6.43;4.20;;;;;;;10.85;77.72;102060.25;5073699;28;20385;-37
2023/05/04 07:12:54;;;;;;;5.80;4.03;;;;;;;10.92;78.09;102047.56;5073026;28;20025;-37
2023/05/04 07:15:20;;;;;;;8.70;4.10;;;;;;;11.02;78.15;102053.41;5073930;28;20253;-37
2023/05/04 07:17:45;;;;;;;7.45;3.92;;;;;;;11.08;77.94;102047.22;5073597;28;20024;-37
2023/05/04 07:20:12;;;;;;;5.18;3.85;;;;;;;11.17;77.67;102042.41;5073497;28;20039;-37
2023/05/04 07:22:38;;;;;;;8.15;4.00;;;;;;;11.27;77.21;102037.47;5075398;28;20021;-37
2023/05/04 07:25:03;;;;;;;8.07;3.97;;;;;;;11.40;75.73;102033.91;5077252;28;20067;-37
2023/05/04 07:27:29;;;;;;;8.18;3.78;;;;;;;11.50;75.39;102039.75;5076901;28;20032;-37
2023/05/04 07:29:55;;;;;;;7.22;3.63;;;;;;;11.65;75.60;102036.81;5078038;28;20365;-37
2023/05/04 07:32:20;;;;;;;5.40;3.90;;;;;;;11.69;77.48;102000.13;5077102;28;20020;-38
2023/05/04 07:34:46;;;;;;;6.63;4.13;;;;;;;11.98;74.82;102027.88;5077426;28;20028;-37
2023/05/04 07:37:12;;;;;;;6.27;4.03;;;;;;;11.95;73.02;102015.56;5077611;28;20021;-37
2023/05/04 07:39:40;;;;;;;8.38;4.43;;;;;;;12.05;73.26;102021.41;5077184;28;20024;-37
2023/05/04 07:42:06;;;;;;;8.45;3.95;;;;;;;12.09;72.74;102019.91;5077165;28;20029;-37
2023/05/04 07:44:31;;;;;;;;;;;;;;;12.28;73.82;102028.19;5077596;28;20495;-37
2023/05/04 07:46:57;;;;;;;7.37;3.70;;;;;;;12.34;72.68;102030.88;5076866;28;19912;-37
2023/05/04 07:49:23;;;;;;;;;;;;;;;12.40;71.62;102029.22;5077483;28;20267;-37
2023/05/04 07:51:48;;;;;;;6.32;4.03;;;;;;;12.50;72.49;102031.47;5077067;28;20318;-37
2023/05/04 07:54:14;;;;;;;5.35;3.45;;;;;;;12.59;71.10;102016.59;5076468;28;20040;-37
2023/05/04 07:56:40;;;;;;;7.10;3.58;;;;;;;12.81;69.99;102025.28;5076400;28;20053;-37
2023/05/04 07:59:05;;;;;;;5.65;3.70;;;;;;;12.82;69.54;102022.31;5076860;28;20112;-37
2023/05/04 08:01:31;;;;;;;5.82;3.75;;;;;;;12.87;69.58;102027.09;5076741;28;20052;-37
2023/05/04 08:03:56;;;;;;;6.10;3.30;;;;;;;12.94;69.61;102025.19;5076308;28;20036;-37
2023/05/04 08:06:22;;;;;;;6.30;3.53;;;;;;;13.00;69.30;102024.31;5076816;28;20027;-37
2023/05/04 08:08:48;;;;;;;7.30;3.83;;;;;;;13.07;68.91;102016.94;5076680;28;20294;-37
2023/05/04 08:11:14;;;;;;;7.10;3.30;;;;;;;13.09;68.12;102012.16;5076731;28;20036;-37
2023/05/04 08:13:40;;;;;;;5.93;3.35;;;;;;;13.26;68.76;102008.91;5076581;28;20453;-37
2023/05/04 08:16:06;;;;;;;5.15;3.25;;;;;;;13.50;68.09;102010.00;5076572;28;20038;-37
2023/05/04 08:18:31;;;;;;;;;;;;;;;13.62;67.12;102010.94;5077241;28;20028;-37
2023/05/04 08:20:57;;;;;;;5.23;3.57;;;;;;;13.69;68.07;102000.81;5076206;28;20003;-37
2023/05/04 08:23:22;;;;;;;7.68;3.78;;;;;;;13.82;67.51;102005.31;5075831;28;20302;-37
2023/05/04 08:25:48;;;;;;;4.85;3.70;;;;;;;13.92;66.08;101992.03;5076744;28;20040;-36
2023/05/04 08:28:13;;;;;;;6.07;3.33;;;;;;;14.02;66.62;101984.19;5076374;28;20070;-37
2023/05/04 08:30:39;;;;;;;4.85;3.17;;;;;;;13.94;65.56;101960.00;5075891;28;20067;-37
2023/05/04 08:33:04;;;;;;;6.80;4.03;;;;;;;14.15;64.87;101989.47;5075270;28;20392;-37
2023/05/04 08:35:30;;;;;;;5.50;3.33;;;;;;;14.18;64.50;101986.28;5076260;28;20032;-36
2023/05/04 08:37:55;;;;;;;6.65;3.50;;;;;;;14.26;64.54;101990.59;5075949;28;20054;-36
2023/05/04 08:40:22;;;;;;;6.60;3.10;;;;;;;14.34;64.71;101987.56;5076203;28;20146;-36
2023/05/04 08:42:50;;;;;;;8.88;4.18;;;;;;;14.52;65.21;101975.03;5075533;28;20278;-36
2023/05/04 08:45:16;;;;;;;5.82;3.67;;;;;;;14.63;63.31;101976.97;5076070;28;20028;-36
2023/05/04 08:47:42;;;;;;;7.55;3.47;;;;;;;14.69;62.42;101981.50;5074753;28;20095;-36
2023/05/04 08:50:09;;;;;;;6.93;3.28;;;;;;;14.85;64.08;101971.84;5075706;28;20039;-36
2023/05/04 08:52:35;;;;;;;7.63;3.80;;;;;;;14.91;60.85;101970.91;5075414;28;20583;-36
2023/05/04 08:55:02;;;;;;;7.80;3.10;;;;;;;15.09;61.47;101961.84;5075858;28;20032;-36
2023/05/04 08:57:28;;;;;;;7.25;3.40;;;;;;;15.27;62.01;101948.09;5075315;28;20534;-36
2023/05/04 08:59:54;;;;;;;7.03;3.63;;;;;;;15.45;60.00;101944.47;5075834;28;20025;-37
2023/05/04 09:02:21;;;;;;;6.80;3.50;;;;;;;15.56;59.19;101938.16;5075778;28;20500;-37
2023/05/04 09:04:51;;;;;;;5.05;2.95;;;;;;;15.63;58.94;101938.06;5075774;28;20056;-36
2023/05/04 09:07:18;;;;;;;5.35;3.20;;;;;;;15.78;59.83;101932.16;5075727;28;20368;-36
2023/05/04 09:09:43;;;;;;;5.85;3.53;;;;;;;15.74;58.80;101914.59;5075608;28;20538;-37
2023/05/04 09:12:09;;;;;;;6.53;3.53;;;;;;;15.90;58.26;101922.88;5075255;28;20033;-36
2023/05/04 09:14:35;;;;;;;;;;;;;;;16.04;58.50;101925.34;5075862;28;20029;-37
2023/05/04 09:17:02;;;;;;;6.47;3.50;;;;;;;16.14;58.21;101910.00;5075198;28;20424;-36
2023/05/04 09:19:32;;;;;;;5.18;3.30;;;;;;;16.31;58.76;101922.91;5075128;28;20123;-36
2023/05/04 09:22:01;;;;;;;6.38;3.50;;;;;;;16.37;58.83;101925.47;5075035;28;20491;-36
2023/05/04 09:24:27;;;;;;;6.88;3.63;;;;;;;16.32;57.79;101908.16;5074698;28;20025;-36
2023/05/04 09:26:52;;;;;;;;;;;;;;;16.47;58.28;101920.19;5075932;28;20516;-36
2023/05/04 09:29:17;;;;;;;7.07;3.35;;;;;;;16.56;57.11;101922.53;5075428;28;19955;-36
2023/05/04 09:31:47;;;;;;;;;;;;;;;16.69;56.47;101920.34;5075632;28;20388;-37
2023/05/04 09:34:15;;;;;;;6.63;3.83;;;;;;;16.66;57.67;101915.38;5074534;28;20011;-36
2023/05/04 09:36:41;;;;;;;6.22;3.95;;;;;;;16.81;57.02;101914.00;5074819;28;20107;-37
2023/05/04 09:39:13;;;;;;;;;;;;;;;17.01;58.17;101908.06;5075445;28;20031;-37
2023/05/04 09:41:39;;;;;;;5.05;3.60;;;;;;;17.16;58.08;101905.56;5074286;28;20456;-37
2023/05/04 09:44:04;;;;;;;;;;;;;;;17.36;55.72;101902.31;5074300;28;20052;-36
2023/05/04 09:46:30;;;;;;;6.70;3.45;;;;;;;17.44;55.68;101880.84;5074841;28;20002;-37
2023/05/04 09:48:55;;;;;;;;;;;;;;;17.70;57.67;101897.59;5074982;28;20107;-37
2023/05/04 09:51:26;;;;;;;8.95;3.75;;;;;;;17.69;55.43;101909.63;5075307;28;19912;-37
2023/05/04 09:53:52;;;;;;;5.57;3.30;;;;;;;17.78;55.67;101901.88;5075249;28;20384;-36
2023/05/04 09:56:54;;;;;;;5.90;3.53;;;;;;;17.86;54.74;101893.19;5075261;28;20086;-37
2023/05/04 09:59:20;;;;;;;6.85;3.58;;;;;;;18.21;55.43;101888.16;5062463;28;20041;-37
2023/05/04 10:01:46;;;;;;;4.00;3.13;;;;;;;18.40;54.71;101883.16;5074595;28;20253;-37
2023/05/04 10:04:12;;;;;;;;;;;;;;;18.59;54.38;101891.00;5074608;28;20152;-37
2023/05/04 10:06:37;;;;;;;5.43;3.88;;;;;;;18.53;52.79;101877.25;5073409;28;19913;-37
2023/05/04 10:09:03;;;;;;;;;;;;;;;18.60;52.15;101876.25;5075153;28;20119;-37
2023/05/04 10:11:29;;;;;;;4.78;3.35;;;;;;;18.69;53.59;101863.72;5074166;28;20399;-37
2023/05/04 10:13:58;;;;;;;7.47;4.05;;;;;;;18.92;53.45;101860.63;5073677;28;20457;-37
2023/05/04 10:16:30;;;;;;;10.48;4.10;;;;;;;18.98;51.08;101856.88;5074546;28;20101;-37
2023/05/04 10:19:14;;;;;;;6.05;3.90;;;;;;;19.03;51.26;101848.69;5073619;28;20110;-37
2023/05/04 10:22:07;;;;;;;7.72;4.50;;;;;;;19.10;50.02;101842.97;5072815;28;20435;-37
2023/05/04 10:24:41;;;;;;;7.30;4.05;;;;;;;19.18;51.43;101823.28;5074390;28;20085;-37
2023/05/04 10:27:06;;;;;;;4.93;4.00;;;;;;;19.50;51.50;101828.66;5074139;28;20032;-37
2023/05/04 10:29:32;;;;;;;;;;;;;;;19.55;51.76;101830.59;5074249;28;20028;-37
2023/05/04 10:31:58;;;;;;;5.97;4.10;;;;;;;19.66;52.09;101818.59;5074161;28;19934;-37
2023/05/04 10:34:27;;;;;;;6.80;4.30;;;;;;;19.61;49.86;101809.53;5074545;28;20029;-37
2023/05/04 10:36:53;;;;;;;5.82;3.92;;;;;;;19.84;50.33;101809.06;5074556;28;20035;-37
2023/05/04 10:39:36;;;;;;;;;;;;;;;19.90;48.15;101798.91;5074114;28;20381;-37
2023/05/04 10:42:03;;;;;;;6.35;4.03;;;;;;;19.96;48.85;101797.84;5074504;28;19912;-38
2023/05/04 10:44:47;;;;;;;7.82;4.53;;;;;;;20.03;49.19;101792.91;5073363;28;20028;-37
2023/05/04 10:47:12;;;;;;;5.93;4.22;;;;;;;20.17;47.82;101793.22;5074077;28;20479;-37
2023/05/04 10:49:38;;;;;;;5.50;3.83;;;;;;;20.26;47.95;101786.94;5073240;28;20025;-37
2023/05/04 10:52:06;;;;;;;6.05;3.63;;;;;;;20.46;49.15;101777.88;5073518;28;20025;-37
2023/05/04 10:54:32;;;;;;;6.10;4.00;;;;;;;20.46;47.48;101744.91;5073694;28;20024;-37
2023/05/04 10:57:05;;;;;;;4.65;4.13;;;;;;;20.45;45.38;101764.41;5073717;28;20071;-37
2023/05/04 10:59:32;;;;;;;4.85;3.20;;;;;;;20.66;46.11;101751.50;5072960;28;20542;-37
2023/05/04 11:02:00;;;;;;;6.20;3.17;;;;;;;20.78;46.44;101754.78;5072985;28;20052;-37
2023/05/04 11:04:26;;;;;;;6.20;3.53;;;;;;;20.88;45.31;101749.25;5073742;28;20033;-36
2023/05/04 11:06:58;;;;;;;7.90;3.28;;;;;;;20.84;44.53;101750.94;5073241;28;20396;-35
2023/05/04 11:09:25;;;;;;;4.95;3.25;;;;;;;20.90;43.79;101738.81;5073351;28;20025;-36
2023/05/04 11:11:52;;;;;;;3.88;3.13;;;;;;;20.86;42.67;101728.66;5073894;28;20584;-36
2023/05/04 11:14:41;;;;;;;5.93;3.20;;;;;;;20.94;45.36;101717.94;5073779;28;20503;-36
2023/05/04 11:17:08;;;;;;;31.90;5.10;;;;;;;20.76;42.09;101737.75;5073050;28;20107;-36
2023/05/04 11:19:34;;;;;;;5.50;3.13;;;;;;;20.87;41.77;101731.13;5073864;28;20107;-36
2023/05/04 11:22:03;;;;;;;7.38;2.60;;;;;;;21.13;43.16;101722.78;5074022;28;20111;-36
2023/05/04 11:24:42;;;;;;;7.82;3.08;;;;;;;21.21;41.33;101728.53;5073210;28;20388;-36
2023/05/04 11:27:18;;;;;;;5.63;3.25;;;;;;;21.19;40.58;101714.25;5073951;28;20032;-37
2023/05/04 11:29:57;;;;;;;4.70;2.90;;;;;;;21.43;41.85;101730.16;5072844;28;20090;-37
2023/05/04 11:32:33;;;;;;;7.05;3.35;;;;;;;21.41;41.36;101708.41;5073754;28;20040;-37